sensor_id;sensor_type;location;lat;lon;timestamp;temperature;humidity
10901;DHT22;5503;53.208;10.392;2024-03-06T00:04:39;3.40;1.00
10901;DHT22;5503;53.208;10.392;2024-03-06T00:21:51;3.50;99.90
10901;DHT22;5503;53.208;10.392;2024-03-06T00:26:45;3.70;99.90
10901;DHT22;5503;53.208;10.392;2024-03-06T00:31:42;4.00;1.00
10901;DHT22;5503;53.208;10.392;2024-03-06T00:36:39;4.40;1.00
10901;DHT22;5503;53.208;10.392;2024-03-06T00:39:07;4.20;1.00
10901;DHT22;5503;53.208;10.392;2024-03-06T00:56:19;3.70;99.90
10901;DHT22;5503;53.208;10.392;2024-03-06T01:01:15;6.40;69.20
10901;DHT22;5503;53.208;10.392;2024-03-06T01:13:33;4.30;1.00
10901;DHT22;5503;53.208;10.392;2024-03-06T01:30:45;4.00;1.00
10901;DHT22;5503;53.208;10.392;2024-03-06T01:47:58;4.00;1.00
10901;DHT22;5503;53.208;10.392;2024-03-06T02:02:42;4.00;1.00
10901;DHT22;5503;53.208;10.392;2024-03-06T02:05:11;4.00;1.00
10901;DHT22;5503;53.208;10.392;2024-03-06T02:07:39;3.80;2.00
10901;DHT22;5503;53.208;10.392;2024-03-06T02:10:07;3.70;99.90
10901;DHT22;5503;53.208;10.392;2024-03-06T02:12:33;3.80;99.90
10901;DHT22;5503;53.208;10.392;2024-03-06T02:22:26;3.70;70.10
10901;DHT22;5503;53.208;10.392;2024-03-06T02:39:39;4.00;1.00
10901;DHT22;5503;53.208;10.392;2024-03-06T02:56:52;3.30;99.90
10901;DHT22;5503;53.208;10.392;2024-03-06T03:14:05;3.60;1.00
10901;DHT22;5503;53.208;10.392;2024-03-06T03:26:23;3.20;99.90
10901;DHT22;5503;53.208;10.392;2024-03-06T03:31:18;3.10;99.90
10901;DHT22;5503;53.208;10.392;2024-03-06T03:41:09;3.20;1.00
10901;DHT22;5503;53.208;10.392;2024-03-06T03:48:33;3.20;1.00
10901;DHT22;5503;53.208;10.392;2024-03-06T04:05:49;3.00;99.90
10901;DHT22;5503;53.208;10.392;2024-03-06T04:23:01;3.30;1.00
10901;DHT22;5503;53.208;10.392;2024-03-06T04:40:13;2.60;99.90
10901;DHT22;5503;53.208;10.392;2024-03-06T04:42:45;-0.90;99.90
10901;DHT22;5503;53.208;10.392;2024-03-06T04:45:14;2.60;99.90
10901;DHT22;5503;53.208;10.392;2024-03-06T04:55:04;2.90;1.00
10901;DHT22;5503;53.208;10.392;2024-03-06T04:57:34;2.80;20.90
10901;DHT22;5503;53.208;10.392;2024-03-06T05:14:51;2.60;99.90
10901;DHT22;5503;53.208;10.392;2024-03-06T05:24:40;2.50;1.00
10901;DHT22;5503;53.208;10.392;2024-03-06T05:32:04;2.50;99.90
10901;DHT22;5503;53.208;10.392;2024-03-06T05:37:00;2.60;99.90
10901;DHT22;5503;53.208;10.392;2024-03-06T05:39:27;2.70;99.90
10901;DHT22;5503;53.208;10.392;2024-03-06T05:41:54;2.80;99.90
10901;DHT22;5503;53.208;10.392;2024-03-06T05:44:21;2.80;30.00
10901;DHT22;5503;53.208;10.392;2024-03-06T05:46:48;2.90;55.30
10901;DHT22;5503;53.208;10.392;2024-03-06T05:49:16;2.80;1.00
10901;DHT22;5503;53.208;10.392;2024-03-06T05:51:43;2.60;71.60
10901;DHT22;5503;53.208;10.392;2024-03-06T05:54:11;2.50;99.90
10901;DHT22;5503;53.208;10.392;2024-03-06T05:56:37;3.40;89.60
10901;DHT22;5503;53.208;10.392;2024-03-06T05:59:05;2.50;20.00
10901;DHT22;5503;53.208;10.392;2024-03-06T06:01:33;2.40;90.10
10901;DHT22;5503;53.208;10.392;2024-03-06T06:04:01;2.50;99.90
10901;DHT22;5503;53.208;10.392;2024-03-06T06:06:29;5.70;1.00
10901;DHT22;5503;53.208;10.392;2024-03-06T06:08:56;2.50;97.00
10901;DHT22;5503;53.208;10.392;2024-03-06T06:11:23;2.50;99.90
10901;DHT22;5503;53.208;10.392;2024-03-06T06:13:50;2.80;9.00
10901;DHT22;5503;53.208;10.392;2024-03-06T06:16:17;2.80;1.00
10901;DHT22;5503;53.208;10.392;2024-03-06T06:18:44;3.00;1.00
10901;DHT22;5503;53.208;10.392;2024-03-06T06:21:12;3.00;1.00
10901;DHT22;5503;53.208;10.392;2024-03-06T06:23:40;4.00;1.00
10901;DHT22;5503;53.208;10.392;2024-03-06T06:26:07;3.00;1.00
10901;DHT22;5503;53.208;10.392;2024-03-06T06:28:35;2.90;1.00
10901;DHT22;5503;53.208;10.392;2024-03-06T06:31:03;2.80;1.00
10901;DHT22;5503;53.208;10.392;2024-03-06T06:33:30;3.30;99.90
10901;DHT22;5503;53.208;10.392;2024-03-06T06:38:23;2.70;99.90
10901;DHT22;5503;53.208;10.392;2024-03-06T06:40:52;2.70;99.90
10901;DHT22;5503;53.208;10.392;2024-03-06T06:45:46;2.90;99.90
10901;DHT22;5503;53.208;10.392;2024-03-06T06:58:05;3.10;99.90
10901;DHT22;5503;53.208;10.392;2024-03-06T07:00:32;3.20;99.90
10901;DHT22;5503;53.208;10.392;2024-03-06T07:15:17;3.50;1.00
10901;DHT22;5503;53.208;10.392;2024-03-06T07:27:35;3.80;1.00
10901;DHT22;5503;53.208;10.392;2024-03-06T07:30:02;6.10;1.00
10901;DHT22;5503;53.208;10.392;2024-03-06T07:32:30;4.10;1.00
10901;DHT22;5503;53.208;10.392;2024-03-06T07:34:57;4.30;1.00
10901;DHT22;5503;53.208;10.392;2024-03-06T07:37:25;4.60;1.00
10901;DHT22;5503;53.208;10.392;2024-03-06T07:39:52;4.60;1.00
10901;DHT22;5503;53.208;10.392;2024-03-06T07:42:18;4.60;1.40
10901;DHT22;5503;53.208;10.392;2024-03-06T07:44:46;4.70;99.90
10901;DHT22;5503;53.208;10.392;2024-03-06T07:52:10;4.90;1.00
10901;DHT22;5503;53.208;10.392;2024-03-06T07:54:36;4.90;1.00
10901;DHT22;5503;53.208;10.392;2024-03-06T07:57:05;4.90;1.00
10901;DHT22;5503;53.208;10.392;2024-03-06T07:59:31;4.80;1.00
10901;DHT22;5503;53.208;10.392;2024-03-06T08:01:58;5.10;1.00
10901;DHT22;5503;53.208;10.392;2024-03-06T08:06:55;5.10;1.00
10901;DHT22;5503;53.208;10.392;2024-03-06T08:11:51;5.20;1.00
10901;DHT22;5503;53.208;10.392;2024-03-06T08:14:20;5.30;1.00
10901;DHT22;5503;53.208;10.392;2024-03-06T08:16:46;5.40;1.00
10901;DHT22;5503;53.208;10.392;2024-03-06T08:19:13;5.30;1.00
10901;DHT22;5503;53.208;10.392;2024-03-06T08:21:40;5.40;1.00
10901;DHT22;5503;53.208;10.392;2024-03-06T08:24:08;5.50;1.00
10901;DHT22;5503;53.208;10.392;2024-03-06T08:26:36;5.50;1.00
10901;DHT22;5503;53.208;10.392;2024-03-06T08:29:03;5.70;1.00
10901;DHT22;5503;53.208;10.392;2024-03-06T08:31:30;5.80;1.00
10901;DHT22;5503;53.208;10.392;2024-03-06T08:33:57;5.70;1.00
10901;DHT22;5503;53.208;10.392;2024-03-06T08:36:24;5.80;1.00
10901;DHT22;5503;53.208;10.392;2024-03-06T08:38:51;6.10;1.00
10901;DHT22;5503;53.208;10.392;2024-03-06T08:41:19;6.10;99.90
10901;DHT22;5503;53.208;10.392;2024-03-06T08:43:47;6.20;1.00
10901;DHT22;5503;53.208;10.392;2024-03-06T08:46:14;6.20;1.00
10901;DHT22;5503;53.208;10.392;2024-03-06T08:48:40;6.30;1.00
10901;DHT22;5503;53.208;10.392;2024-03-06T08:51:07;6.40;1.00
10901;DHT22;5503;53.208;10.392;2024-03-06T08:53:36;6.70;1.00
10901;DHT22;5503;53.208;10.392;2024-03-06T08:56:04;7.00;99.90
10901;DHT22;5503;53.208;10.392;2024-03-06T08:58:33;7.00;1.00
10901;DHT22;5503;53.208;10.392;2024-03-06T09:01:00;7.00;99.90
10901;DHT22;5503;53.208;10.392;2024-03-06T09:03:26;7.10;99.90
10901;DHT22;5503;53.208;10.392;2024-03-06T09:05:53;7.30;25.30
10901;DHT22;5503;53.208;10.392;2024-03-06T09:08:20;7.40;1.00
10901;DHT22;5503;53.208;10.392;2024-03-06T09:10:47;7.40;1.00
10901;DHT22;5503;53.208;10.392;2024-03-06T09:13:14;7.50;1.00
10901;DHT22;5503;53.208;10.392;2024-03-06T09:15:42;9.70;1.00
10901;DHT22;5503;53.208;10.392;2024-03-06T09:18:09;9.60;1.00
10901;DHT22;5503;53.208;10.392;2024-03-06T09:20:35;7.80;1.00
10901;DHT22;5503;53.208;10.392;2024-03-06T09:23:02;7.80;1.00
10901;DHT22;5503;53.208;10.392;2024-03-06T09:25:29;7.80;99.90
10901;DHT22;5503;53.208;10.392;2024-03-06T09:27:56;7.80;99.90
10901;DHT22;5503;53.208;10.392;2024-03-06T09:30:25;7.80;1.00
10901;DHT22;5503;53.208;10.392;2024-03-06T09:32:55;9.40;1.00
10901;DHT22;5503;53.208;10.392;2024-03-06T09:35:21;7.70;69.30
10901;DHT22;5503;53.208;10.392;2024-03-06T09:37:48;7.80;99.90
10901;DHT22;5503;53.208;10.392;2024-03-06T09:40:22;7.80;99.90
10901;DHT22;5503;53.208;10.392;2024-03-06T09:42:49;7.70;1.00
10901;DHT22;5503;53.208;10.392;2024-03-06T09:45:16;8.00;1.00
10901;DHT22;5503;53.208;10.392;2024-03-06T09:47:46;8.20;86.30
10901;DHT22;5503;53.208;10.392;2024-03-06T09:50:18;8.40;1.00
10901;DHT22;5503;53.208;10.392;2024-03-06T09:52:51;8.60;34.60
10901;DHT22;5503;53.208;10.392;2024-03-06T09:55:18;8.70;1.00
10901;DHT22;5503;53.208;10.392;2024-03-06T09:57:45;8.50;99.90
10901;DHT22;5503;53.208;10.392;2024-03-06T10:00:13;8.30;99.90
10901;DHT22;5503;53.208;10.392;2024-03-06T10:02:46;8.20;38.10
10901;DHT22;5503;53.208;10.392;2024-03-06T10:05:23;8.60;99.90
10901;DHT22;5503;53.208;10.392;2024-03-06T10:07:51;8.80;99.90
10901;DHT22;5503;53.208;10.392;2024-03-06T10:10:18;9.10;99.90
10901;DHT22;5503;53.208;10.392;2024-03-06T10:12:45;9.00;99.90
10901;DHT22;5503;53.208;10.392;2024-03-06T10:15:13;8.90;86.80
10901;DHT22;5503;53.208;10.392;2024-03-06T10:17:40;11.40;1.00
10901;DHT22;5503;53.208;10.392;2024-03-06T10:20:17;7.40;1.00
10901;DHT22;5503;53.208;10.392;2024-03-06T10:22:48;9.20;1.00
10901;DHT22;5503;53.208;10.392;2024-03-06T10:25:18;9.30;1.00
10901;DHT22;5503;53.208;10.392;2024-03-06T10:27:45;9.50;99.90
10901;DHT22;5503;53.208;10.392;2024-03-06T10:30:13;9.10;1.00
10901;DHT22;5503;53.208;10.392;2024-03-06T10:32:41;9.30;1.00
10901;DHT22;5503;53.208;10.392;2024-03-06T10:35:17;9.30;99.90
10901;DHT22;5503;53.208;10.392;2024-03-06T10:37:47;9.00;1.00
10901;DHT22;5503;53.208;10.392;2024-03-06T10:40:15;8.90;1.00
10901;DHT22;5503;53.208;10.392;2024-03-06T10:42:45;9.20;1.00
10901;DHT22;5503;53.208;10.392;2024-03-06T10:45:14;9.60;99.90
10901;DHT22;5503;53.208;10.392;2024-03-06T10:47:45;9.80;99.90
10901;DHT22;5503;53.208;10.392;2024-03-06T10:50:14;9.90;34.70
10901;DHT22;5503;53.208;10.392;2024-03-06T10:52:42;9.90;2.50
10901;DHT22;5503;53.208;10.392;2024-03-06T10:55:13;12.30;99.90
10901;DHT22;5503;53.208;10.392;2024-03-06T10:57:43;10.40;1.00
10901;DHT22;5503;53.208;10.392;2024-03-06T11:00:11;10.60;1.00
10901;DHT22;5503;53.208;10.392;2024-03-06T11:02:45;10.60;1.00
10901;DHT22;5503;53.208;10.392;2024-03-06T11:05:14;10.90;1.00
10901;DHT22;5503;53.208;10.392;2024-03-06T11:07:41;11.00;1.00
10901;DHT22;5503;53.208;10.392;2024-03-06T11:10:09;13.70;1.00
10901;DHT22;5503;53.208;10.392;2024-03-06T11:12:43;11.10;1.00
10901;DHT22;5503;53.208;10.392;2024-03-06T11:15:14;11.20;1.00
10901;DHT22;5503;53.208;10.392;2024-03-06T11:17:42;10.70;99.90
10901;DHT22;5503;53.208;10.392;2024-03-06T11:20:14;10.50;99.90
10901;DHT22;5503;53.208;10.392;2024-03-06T11:23:03;10.40;1.00
10901;DHT22;5503;53.208;10.392;2024-03-06T11:26:00;10.10;99.90
10901;DHT22;5503;53.208;10.392;2024-03-06T11:28:30;10.10;1.00
10901;DHT22;5503;53.208;10.392;2024-03-06T11:30:58;13.00;99.90
10901;DHT22;5503;53.208;10.392;2024-03-06T11:33:34;10.00;99.90
10901;DHT22;5503;53.208;10.392;2024-03-06T11:36:18;10.30;99.90
10901;DHT22;5503;53.208;10.392;2024-03-06T11:38:53;10.90;99.90
10901;DHT22;5503;53.208;10.392;2024-03-06T11:41:21;10.90;73.00
10901;DHT22;5503;53.208;10.392;2024-03-06T11:43:50;10.00;63.00
10901;DHT22;5503;53.208;10.392;2024-03-06T11:46:19;11.50;99.90
10901;DHT22;5503;53.208;10.392;2024-03-06T11:48:52;10.40;99.90
10901;DHT22;5503;53.208;10.392;2024-03-06T11:51:20;10.70;99.90
10901;DHT22;5503;53.208;10.392;2024-03-06T11:53:49;10.80;99.90
10901;DHT22;5503;53.208;10.392;2024-03-06T11:56:17;11.30;99.90
10901;DHT22;5503;53.208;10.392;2024-03-06T11:58:45;11.10;1.00
10901;DHT22;5503;53.208;10.392;2024-03-06T12:01:14;10.80;1.00
10901;DHT22;5503;53.208;10.392;2024-03-06T12:03:41;10.60;19.70
10901;DHT22;5503;53.208;10.392;2024-03-06T12:06:09;10.30;98.40
10901;DHT22;5503;53.208;10.392;2024-03-06T12:08:36;13.20;99.90
10901;DHT22;5503;53.208;10.392;2024-03-06T12:11:05;11.20;99.90
10901;DHT22;5503;53.208;10.392;2024-03-06T12:13:33;11.40;99.90
10901;DHT22;5503;53.208;10.392;2024-03-06T12:16:04;11.40;6.40
10901;DHT22;5503;53.208;10.392;2024-03-06T12:18:33;11.40;91.20
10901;DHT22;5503;53.208;10.392;2024-03-06T12:21:01;11.30;1.00
10901;DHT22;5503;53.208;10.392;2024-03-06T12:23:29;11.00;64.00
10901;DHT22;5503;53.208;10.392;2024-03-06T12:26:03;13.00;40.80
10901;DHT22;5503;53.208;10.392;2024-03-06T12:28:30;11.20;1.00
10901;DHT22;5503;53.208;10.392;2024-03-06T12:30:57;11.00;1.00
10901;DHT22;5503;53.208;10.392;2024-03-06T12:33:26;11.00;1.00
10901;DHT22;5503;53.208;10.392;2024-03-06T12:36:02;11.30;1.00
10901;DHT22;5503;53.208;10.392;2024-03-06T12:38:29;11.50;1.00
10901;DHT22;5503;53.208;10.392;2024-03-06T12:40:56;12.40;1.00
10901;DHT22;5503;53.208;10.392;2024-03-06T12:43:24;10.70;73.10
10901;DHT22;5503;53.208;10.392;2024-03-06T12:45:51;10.90;90.90
10901;DHT22;5503;53.208;10.392;2024-03-06T12:48:20;11.10;99.90
10901;DHT22;5503;53.208;10.392;2024-03-06T12:50:47;11.20;56.50
10901;DHT22;5503;53.208;10.392;2024-03-06T12:53:18;11.50;20.50
10901;DHT22;5503;53.208;10.392;2024-03-06T12:55:46;11.60;43.20
10901;DHT22;5503;53.208;10.392;2024-03-06T12:58:12;11.40;22.10
10901;DHT22;5503;53.208;10.392;2024-03-06T13:00:39;11.30;37.00
10901;DHT22;5503;53.208;10.392;2024-03-06T13:03:07;11.30;67.60
10901;DHT22;5503;53.208;10.392;2024-03-06T13:05:34;11.50;59.50
10901;DHT22;5503;53.208;10.392;2024-03-06T13:08:01;11.40;41.30
10901;DHT22;5503;53.208;10.392;2024-03-06T13:10:29;11.30;1.00
10901;DHT22;5503;53.208;10.392;2024-03-06T13:12:56;10.90;1.00
10901;DHT22;5503;53.208;10.392;2024-03-06T13:15:23;10.90;77.40
10901;DHT22;5503;53.208;10.392;2024-03-06T13:17:49;11.40;95.70
10901;DHT22;5503;53.208;10.392;2024-03-06T13:20:17;11.50;18.50
10901;DHT22;5503;53.208;10.392;2024-03-06T13:22:44;11.60;28.50
10901;DHT22;5503;53.208;10.392;2024-03-06T13:25:12;11.40;1.00
10901;DHT22;5503;53.208;10.392;2024-03-06T13:27:40;11.20;1.00
10901;DHT22;5503;53.208;10.392;2024-03-06T13:30:08;12.90;32.90
10901;DHT22;5503;53.208;10.392;2024-03-06T13:32:35;11.90;1.00
10901;DHT22;5503;53.208;10.392;2024-03-06T13:35:01;11.40;1.00
10901;DHT22;5503;53.208;10.392;2024-03-06T13:37:28;11.20;1.00
10901;DHT22;5503;53.208;10.392;2024-03-06T13:39:55;11.10;1.00
10901;DHT22;5503;53.208;10.392;2024-03-06T13:42:26;10.70;1.00
10901;DHT22;5503;53.208;10.392;2024-03-06T13:44:54;10.70;30.50
10901;DHT22;5503;53.208;10.392;2024-03-06T13:47:21;10.70;8.90
10901;DHT22;5503;53.208;10.392;2024-03-06T13:49:48;10.80;31.70
10901;DHT22;5503;53.208;10.392;2024-03-06T13:52:15;11.00;1.00
10901;DHT22;5503;53.208;10.392;2024-03-06T13:54:46;13.80;1.00
10901;DHT22;5503;53.208;10.392;2024-03-06T13:57:13;11.40;1.00
10901;DHT22;5503;53.208;10.392;2024-03-06T13:59:41;11.60;1.00
10901;DHT22;5503;53.208;10.392;2024-03-06T14:02:09;12.10;1.00
10901;DHT22;5503;53.208;10.392;2024-03-06T14:04:36;12.20;1.00
10901;DHT22;5503;53.208;10.392;2024-03-06T14:07:03;11.90;1.00
10901;DHT22;5503;53.208;10.392;2024-03-06T14:09:30;12.10;1.00
10901;DHT22;5503;53.208;10.392;2024-03-06T14:11:57;12.20;1.00
10901;DHT22;5503;53.208;10.392;2024-03-06T14:14:24;12.10;1.00
10901;DHT22;5503;53.208;10.392;2024-03-06T14:16:51;11.90;1.00
10901;DHT22;5503;53.208;10.392;2024-03-06T14:19:19;12.30;1.00
10901;DHT22;5503;53.208;10.392;2024-03-06T14:21:47;12.60;1.00
10901;DHT22;5503;53.208;10.392;2024-03-06T14:24:14;12.90;1.00
10901;DHT22;5503;53.208;10.392;2024-03-06T14:26:41;12.80;1.00
10901;DHT22;5503;53.208;10.392;2024-03-06T14:29:08;12.50;1.00
10901;DHT22;5503;53.208;10.392;2024-03-06T14:31:35;10.00;1.00
10901;DHT22;5503;53.208;10.392;2024-03-06T14:34:02;11.50;1.00
10901;DHT22;5503;53.208;10.392;2024-03-06T14:36:30;11.50;1.00
10901;DHT22;5503;53.208;10.392;2024-03-06T14:38:57;14.00;1.00
10901;DHT22;5503;53.208;10.392;2024-03-06T14:41:24;10.90;1.00
10901;DHT22;5503;53.208;10.392;2024-03-06T14:43:51;12.60;1.00
10901;DHT22;5503;53.208;10.392;2024-03-06T14:46:19;12.10;1.00
10901;DHT22;5503;53.208;10.392;2024-03-06T14:48:46;12.70;1.00
10901;DHT22;5503;53.208;10.392;2024-03-06T14:51:13;11.90;1.00
10901;DHT22;5503;53.208;10.392;2024-03-06T14:53:42;10.20;1.00
10901;DHT22;5503;53.208;10.392;2024-03-06T14:56:09;10.20;1.00
10901;DHT22;5503;53.208;10.392;2024-03-06T14:58:36;10.40;1.00
10901;DHT22;5503;53.208;10.392;2024-03-06T15:01:05;10.50;1.00
10901;DHT22;5503;53.208;10.392;2024-03-06T15:05:59;10.60;1.00
10901;DHT22;5503;53.208;10.392;2024-03-06T15:08:26;10.40;1.00
10901;DHT22;5503;53.208;10.392;2024-03-06T15:10:54;10.30;1.00
10901;DHT22;5503;53.208;10.392;2024-03-06T15:13:22;10.60;1.00
10901;DHT22;5503;53.208;10.392;2024-03-06T15:15:51;10.80;1.00
10901;DHT22;5503;53.208;10.392;2024-03-06T15:18:18;10.90;1.00
10901;DHT22;5503;53.208;10.392;2024-03-06T15:20:45;10.70;1.00
10901;DHT22;5503;53.208;10.392;2024-03-06T15:23:12;10.70;1.00
10901;DHT22;5503;53.208;10.392;2024-03-06T15:25:40;10.90;1.00
10901;DHT22;5503;53.208;10.392;2024-03-06T15:28:10;10.70;1.00
10901;DHT22;5503;53.208;10.392;2024-03-06T15:30:37;9.90;1.00
10901;DHT22;5503;53.208;10.392;2024-03-06T15:33:04;9.50;1.00
10901;DHT22;5503;53.208;10.392;2024-03-06T15:35:32;9.40;1.00
10901;DHT22;5503;53.208;10.392;2024-03-06T15:37:59;9.10;1.00
10901;DHT22;5503;53.208;10.392;2024-03-06T15:40:26;9.10;1.00
10901;DHT22;5503;53.208;10.392;2024-03-06T15:45:21;9.40;20.50
10901;DHT22;5503;53.208;10.392;2024-03-06T15:47:49;9.60;1.00
10901;DHT22;5503;53.208;10.392;2024-03-06T15:50:16;9.60;1.00
10901;DHT22;5503;53.208;10.392;2024-03-06T15:52:42;9.80;1.00
10901;DHT22;5503;53.208;10.392;2024-03-06T15:55:10;10.00;1.00
10901;DHT22;5503;53.208;10.392;2024-03-06T16:00:06;10.20;1.00
10901;DHT22;5503;53.208;10.392;2024-03-06T16:02:36;10.30;1.00
10901;DHT22;5503;53.208;10.392;2024-03-06T16:07:34;10.20;1.00
10901;DHT22;5503;53.208;10.392;2024-03-06T16:19:52;10.10;1.00
10901;DHT22;5503;53.208;10.392;2024-03-06T16:37:04;9.80;1.00
10901;DHT22;5503;53.208;10.392;2024-03-06T16:46:54;9.90;1.00
10901;DHT22;5503;53.208;10.392;2024-03-06T16:54:16;10.00;1.00
10901;DHT22;5503;53.208;10.392;2024-03-06T16:59:11;9.70;1.00
10901;DHT22;5503;53.208;10.392;2024-03-06T17:11:28;8.50;93.80
10901;DHT22;5503;53.208;10.392;2024-03-06T17:13:57;8.60;99.90
10901;DHT22;5503;53.208;10.392;2024-03-06T17:18:52;8.50;99.90
10901;DHT22;5503;53.208;10.392;2024-03-06T17:23:46;8.50;99.90
10901;DHT22;5503;53.208;10.392;2024-03-06T17:28:44;8.40;99.90
10901;DHT22;5503;53.208;10.392;2024-03-06T17:31:12;8.40;99.90
10901;DHT22;5503;53.208;10.392;2024-03-06T17:33:39;8.30;99.90
10901;DHT22;5503;53.208;10.392;2024-03-06T17:36:06;8.40;1.00
10901;DHT22;5503;53.208;10.392;2024-03-06T17:38:34;11.50;1.00
10901;DHT22;5503;53.208;10.392;2024-03-06T17:41:01;8.10;1.00
10901;DHT22;5503;53.208;10.392;2024-03-06T17:43:28;8.10;1.00
10901;DHT22;5503;53.208;10.392;2024-03-06T17:45:56;8.00;1.00
10901;DHT22;5503;53.208;10.392;2024-03-06T17:48:23;8.00;1.00
10901;DHT22;5503;53.208;10.392;2024-03-06T17:50:49;8.00;1.00
10901;DHT22;5503;53.208;10.392;2024-03-06T17:53:16;8.00;1.00
10901;DHT22;5503;53.208;10.392;2024-03-06T17:55:43;8.10;1.00
10901;DHT22;5503;53.208;10.392;2024-03-06T17:58:10;8.00;1.00
10901;DHT22;5503;53.208;10.392;2024-03-06T18:00:37;8.00;1.00
10901;DHT22;5503;53.208;10.392;2024-03-06T18:03:05;7.90;1.00
10901;DHT22;5503;53.208;10.392;2024-03-06T18:05:32;7.90;1.00
10901;DHT22;5503;53.208;10.392;2024-03-06T18:07:59;8.30;1.00
10901;DHT22;5503;53.208;10.392;2024-03-06T18:10:31;8.00;1.00
10901;DHT22;5503;53.208;10.392;2024-03-06T18:12:58;7.80;1.00
10901;DHT22;5503;53.208;10.392;2024-03-06T18:15:27;8.70;94.30
10901;DHT22;5503;53.208;10.392;2024-03-06T18:17:54;7.20;99.90
10901;DHT22;5503;53.208;10.392;2024-03-06T18:20:33;7.10;99.90
10901;DHT22;5503;53.208;10.392;2024-03-06T18:23:09;7.20;99.90
10901;DHT22;5503;53.208;10.392;2024-03-06T18:25:38;7.20;99.90
10901;DHT22;5503;53.208;10.392;2024-03-06T18:28:07;7.10;99.90
10901;DHT22;5503;53.208;10.392;2024-03-06T18:30:34;7.20;99.90
10901;DHT22;5503;53.208;10.392;2024-03-06T18:33:01;7.20;99.90
10901;DHT22;5503;53.208;10.392;2024-03-06T18:35:29;7.10;99.90
10901;DHT22;5503;53.208;10.392;2024-03-06T18:37:59;7.20;99.90
10901;DHT22;5503;53.208;10.392;2024-03-06T18:40:26;7.00;99.90
10901;DHT22;5503;53.208;10.392;2024-03-06T18:42:53;6.70;1.00
10901;DHT22;5503;53.208;10.392;2024-03-06T18:45:20;6.70;1.00
10901;DHT22;5503;53.208;10.392;2024-03-06T18:47:47;6.80;1.00
10901;DHT22;5503;53.208;10.392;2024-03-06T18:50:15;6.80;1.00
10901;DHT22;5503;53.208;10.392;2024-03-06T18:52:42;6.80;1.00
10901;DHT22;5503;53.208;10.392;2024-03-06T18:55:11;6.80;1.00
10901;DHT22;5503;53.208;10.392;2024-03-06T18:57:38;7.00;1.00
10901;DHT22;5503;53.208;10.392;2024-03-06T19:00:06;7.10;99.90
10901;DHT22;5503;53.208;10.392;2024-03-06T19:02:33;7.20;99.90
10901;DHT22;5503;53.208;10.392;2024-03-06T19:05:00;7.30;99.90
10901;DHT22;5503;53.208;10.392;2024-03-06T19:07:27;7.20;99.90
10901;DHT22;5503;53.208;10.392;2024-03-06T19:09:54;7.10;99.90
10901;DHT22;5503;53.208;10.392;2024-03-06T19:12:22;7.10;99.90
10901;DHT22;5503;53.208;10.392;2024-03-06T19:14:49;7.00;99.90
10901;DHT22;5503;53.208;10.392;2024-03-06T19:17:16;6.90;1.00
10901;DHT22;5503;53.208;10.392;2024-03-06T19:19:46;6.80;1.00
10901;DHT22;5503;53.208;10.392;2024-03-06T19:22:14;6.60;1.00
10901;DHT22;5503;53.208;10.392;2024-03-06T19:24:41;6.70;1.00
10901;DHT22;5503;53.208;10.392;2024-03-06T19:27:08;6.50;1.00
10901;DHT22;5503;53.208;10.392;2024-03-06T19:29:37;6.40;99.90
10901;DHT22;5503;53.208;10.392;2024-03-06T19:32:05;6.40;99.90
10901;DHT22;5503;53.208;10.392;2024-03-06T19:34:39;6.40;99.90
10901;DHT22;5503;53.208;10.392;2024-03-06T19:37:06;6.20;99.90
10901;DHT22;5503;53.208;10.392;2024-03-06T19:39:33;6.70;99.90
10901;DHT22;5503;53.208;10.392;2024-03-06T19:42:09;6.70;99.90
10901;DHT22;5503;53.208;10.392;2024-03-06T19:44:38;6.30;99.90
10901;DHT22;5503;53.208;10.392;2024-03-06T19:47:05;6.40;99.90
10901;DHT22;5503;53.208;10.392;2024-03-06T19:49:33;6.50;99.90
10901;DHT22;5503;53.208;10.392;2024-03-06T19:52:00;6.50;70.20
10901;DHT22;5503;53.208;10.392;2024-03-06T19:54:26;6.40;99.90
10901;DHT22;5503;53.208;10.392;2024-03-06T19:56:56;6.50;72.60
10901;DHT22;5503;53.208;10.392;2024-03-06T19:59:27;6.50;99.90
10901;DHT22;5503;53.208;10.392;2024-03-06T20:01:56;6.40;99.90
10901;DHT22;5503;53.208;10.392;2024-03-06T20:04:24;6.30;99.90
10901;DHT22;5503;53.208;10.392;2024-03-06T20:06:51;6.50;99.90
10901;DHT22;5503;53.208;10.392;2024-03-06T20:09:18;6.60;1.00
10901;DHT22;5503;53.208;10.392;2024-03-06T20:11:45;6.60;1.00
10901;DHT22;5503;53.208;10.392;2024-03-06T20:14:13;6.40;99.90
10901;DHT22;5503;53.208;10.392;2024-03-06T20:16:40;6.70;99.90
10901;DHT22;5503;53.208;10.392;2024-03-06T20:19:08;6.40;99.90
10901;DHT22;5503;53.208;10.392;2024-03-06T20:21:35;6.40;99.90
10901;DHT22;5503;53.208;10.392;2024-03-06T20:24:06;6.40;99.90
10901;DHT22;5503;53.208;10.392;2024-03-06T20:26:34;6.40;99.90
10901;DHT22;5503;53.208;10.392;2024-03-06T20:29:01;6.40;99.90
10901;DHT22;5503;53.208;10.392;2024-03-06T20:31:42;6.50;99.90
10901;DHT22;5503;53.208;10.392;2024-03-06T20:34:11;6.60;71.50
10901;DHT22;5503;53.208;10.392;2024-03-06T20:36:38;6.40;1.00
10901;DHT22;5503;53.208;10.392;2024-03-06T20:39:05;6.40;39.70
10901;DHT22;5503;53.208;10.392;2024-03-06T20:41:38;6.30;29.10
10901;DHT22;5503;53.208;10.392;2024-03-06T20:44:06;6.00;36.50
10901;DHT22;5503;53.208;10.392;2024-03-06T20:46:36;6.10;63.70
10901;DHT22;5503;53.208;10.392;2024-03-06T20:49:06;6.10;82.80
10901;DHT22;5503;53.208;10.392;2024-03-06T20:51:43;6.10;96.80
10901;DHT22;5503;53.208;10.392;2024-03-06T20:54:09;6.20;90.90
10901;DHT22;5503;53.208;10.392;2024-03-06T20:56:37;6.20;1.00
10901;DHT22;5503;53.208;10.392;2024-03-06T20:59:04;6.10;12.30
10901;DHT22;5503;53.208;10.392;2024-03-06T21:01:34;5.90;99.90
10901;DHT22;5503;53.208;10.392;2024-03-06T21:04:01;5.80;99.90
10901;DHT22;5503;53.208;10.392;2024-03-06T21:06:28;5.60;99.90
10901;DHT22;5503;53.208;10.392;2024-03-06T21:08:56;5.40;1.00
10901;DHT22;5503;53.208;10.392;2024-03-06T21:11:24;5.30;1.00
10901;DHT22;5503;53.208;10.392;2024-03-06T21:13:51;5.20;1.00
10901;DHT22;5503;53.208;10.392;2024-03-06T21:16:18;5.20;1.00
10901;DHT22;5503;53.208;10.392;2024-03-06T21:18:47;5.10;1.00
10901;DHT22;5503;53.208;10.392;2024-03-06T21:21:14;5.20;1.00
10901;DHT22;5503;53.208;10.392;2024-03-06T21:23:41;5.00;1.00
10901;DHT22;5503;53.208;10.392;2024-03-06T21:26:09;5.00;1.00
10901;DHT22;5503;53.208;10.392;2024-03-06T21:28:37;5.00;1.00
10901;DHT22;5503;53.208;10.392;2024-03-06T21:31:04;4.90;1.00
10901;DHT22;5503;53.208;10.392;2024-03-06T21:33:31;4.80;1.00
10901;DHT22;5503;53.208;10.392;2024-03-06T21:35:58;4.80;1.00
10901;DHT22;5503;53.208;10.392;2024-03-06T21:38:25;4.70;1.00
10901;DHT22;5503;53.208;10.392;2024-03-06T21:40:52;4.70;1.00
10901;DHT22;5503;53.208;10.392;2024-03-06T21:43:20;4.80;1.00
10901;DHT22;5503;53.208;10.392;2024-03-06T21:45:47;6.10;1.00
10901;DHT22;5503;53.208;10.392;2024-03-06T21:48:14;4.90;1.00
10901;DHT22;5503;53.208;10.392;2024-03-06T21:50:42;5.10;99.90
10901;DHT22;5503;53.208;10.392;2024-03-06T21:53:08;5.20;28.90
10901;DHT22;5503;53.208;10.392;2024-03-06T21:55:35;5.70;1.00
10901;DHT22;5503;53.208;10.392;2024-03-06T21:58:02;5.30;1.00
10901;DHT22;5503;53.208;10.392;2024-03-06T22:00:32;5.10;1.00